createdAt,value
2023-01-17T00:00:08.373Z,60.31
2023-01-17T00:01:08.301Z,60.50
2023-01-17T00:02:08.284Z,57.42
2023-01-17T00:03:08.249Z,59.69
2023-01-17T00:04:08.299Z,59.99
2023-01-17T00:05:08.189Z,62.13
2023-01-17T00:06:08.167Z,62.41
2023-01-17T01:54:43.838Z,27.08
2023-01-17T01:55:43.813Z,29.28
2023-01-17T01:56:43.785Z,25.26
2023-01-17T01:57:43.755Z,26.09
2023-01-17T01:58:43.770Z,27.55
2023-01-17T01:59:43.716Z,26.07
2023-01-17T02:00:43.744Z,25.26
2023-01-17T02:01:43.803Z,25.00
2023-01-17T02:02:43.636Z,27.34
2023-01-17T02:03:43.628Z,29.44
2023-01-17T02:04:43.581Z,26.98
2023-01-17T02:05:43.568Z,27.60
2023-01-17T02:06:43.529Z,27.17
2023-01-17T02:07:43.500Z,27.10
2023-01-17T02:08:43.480Z,26.37
2023-01-17T02:09:43.458Z,27.77
2023-01-17T02:10:43.433Z,28.87
2023-01-17T02:11:43.414Z,27.55
2023-01-17T02:12:43.391Z,26.81
2023-01-17T02:13:43.378Z,25.62
2023-01-17T02:14:43.380Z,26.85
2023-01-17T02:15:43.354Z,27.14
2023-01-17T02:16:43.421Z,28.21
2023-01-17T02:17:43.276Z,28.66
2023-01-17T02:18:43.262Z,24.21
2023-01-17T02:19:43.262Z,28.73
2023-01-17T02:20:43.212Z,29.00
2023-01-17T02:21:43.197Z,29.39
2023-01-17T02:22:43.174Z,29.24
2023-01-17T02:23:43.146Z,29.04
2023-01-17T02:24:43.126Z,28.25
2023-01-17T02:25:43.632Z,30.50
2023-01-17T02:26:43.085Z,29.15
2023-01-17T02:27:43.069Z,28.17
2023-01-17T02:28:43.052Z,27.81
2023-01-17T02:29:43.033Z,30.68
2023-01-17T02:30:43.063Z,29.60
2023-01-17T02:31:43.044Z,28.20
2023-01-17T02:32:42.969Z,30.76
2023-01-17T02:33:42.940Z,28.11
2023-01-17T02:34:42.920Z,25.57
2023-01-17T02:35:42.947Z,29.46
2023-01-17T02:36:42.888Z,29.12
2023-01-17T02:37:42.852Z,30.54
2023-01-17T02:38:42.832Z,28.97
2023-01-17T02:39:42.822Z,29.94
2023-01-17T02:40:42.791Z,30.95
2023-01-17T02:41:42.773Z,32.14
2023-01-17T02:42:42.748Z,31.50
2023-01-17T02:43:42.740Z,25.55
2023-01-17T02:44:42.697Z,29.25
2023-01-17T02:45:42.686Z,30.30
2023-01-17T02:46:42.666Z,32.78
2023-01-17T02:47:42.617Z,30.83
2023-01-17T02:48:42.593Z,27.81
2023-01-17T02:49:42.575Z,30.72
2023-01-17T02:50:42.558Z,27.24
2023-01-17T02:51:42.521Z,29.11
2023-01-17T02:52:42.499Z,26.78
2023-01-17T02:53:42.491Z,26.81
2023-01-17T02:54:42.453Z,27.92
2023-01-17T02:55:42.427Z,25.43
2023-01-17T02:56:42.398Z,27.66
2023-01-17T02:57:42.368Z,26.74
2023-01-17T02:58:42.337Z,28.20
2023-01-17T02:59:42.308Z,28.33
2023-01-17T03:00:42.293Z,28.99
2023-01-17T03:01:42.315Z,30.58
2023-01-17T03:02:42.334Z,28.24
2023-01-17T03:03:42.202Z,30.82
2023-01-17T03:04:42.190Z,30.33
2023-01-17T03:05:42.149Z,32.46
2023-01-17T03:06:42.122Z,30.12
2023-01-17T03:07:42.100Z,29.32
2023-01-17T03:08:42.079Z,31.49
2023-01-17T03:09:42.047Z,28.81
2023-01-17T03:10:42.019Z,29.64
2023-01-17T03:11:41.994Z,29.39
2023-01-17T03:12:41.994Z,32.81
2023-01-17T03:13:41.944Z,31.58
2023-01-17T03:14:41.922Z,31.36
2023-01-17T03:15:41.918Z,30.51
2023-01-17T03:16:41.897Z,29.90
2023-01-17T03:17:41.841Z,29.00
2023-01-17T03:18:41.863Z,29.95
2023-01-17T03:19:41.788Z,29.51
2023-01-17T03:20:41.777Z,29.25
2023-01-17T03:21:41.732Z,30.67
2023-01-17T03:22:41.704Z,26.57
2023-01-17T03:23:41.690Z,28.90
2023-01-17T03:24:41.654Z,27.70
2023-01-17T03:25:41.649Z,29.07
2023-01-17T03:26:41.610Z,29.35
2023-01-17T03:27:41.586Z,30.78
2023-01-17T03:28:41.556Z,30.43
2023-01-17T03:29:41.533Z,28.42
2023-01-17T03:30:41.533Z,28.57
2023-01-17T03:31:41.483Z,26.37
2023-01-17T03:32:41.447Z,27.86
2023-01-17T03:33:41.434Z,27.09
2023-01-17T03:34:41.426Z,29.94
2023-01-17T03:35:41.382Z,30.36
2023-01-17T03:36:41.359Z,30.05
2023-01-17T03:37:41.329Z,27.82
2023-01-17T03:38:41.337Z,28.60
2023-01-17T03:39:41.287Z,27.43
2023-01-17T03:40:41.275Z,29.20
2023-01-17T03:41:41.255Z,28.73
2023-01-17T03:42:41.228Z,30.66
2023-01-17T03:43:41.202Z,27.95
2023-01-17T03:44:41.175Z,26.68
2023-01-17T03:45:41.186Z,30.26
2023-01-17T03:46:41.140Z,29.83
2023-01-17T03:47:41.099Z,28.72
2023-01-17T03:48:41.079Z,27.64
2023-01-17T03:49:41.065Z,31.46
2023-01-17T03:50:41.067Z,28.94
2023-01-17T03:51:41.002Z,28.32
2023-01-17T03:52:40.980Z,26.80
2023-01-17T03:53:40.958Z,28.45
2023-01-17T03:54:40.934Z,28.19
2023-01-17T03:55:40.925Z,29.29
2023-01-17T03:56:40.896Z,31.38
2023-01-17T03:57:40.869Z,33.32
2023-01-17T03:58:40.842Z,28.96
2023-01-17T03:59:40.826Z,29.16
2023-01-17T04:00:40.816Z,29.54
2023-01-17T04:01:40.933Z,27.51
2023-01-17T04:02:40.813Z,29.75
2023-01-17T04:03:40.756Z,30.86
2023-01-17T04:04:40.747Z,32.93
2023-01-17T04:05:40.721Z,34.91
2023-01-17T04:06:40.717Z,31.27
2023-01-17T04:07:40.674Z,32.23
2023-01-17T04:08:40.660Z,29.38
2023-01-17T04:09:40.657Z,30.81
2023-01-17T04:10:40.615Z,30.14
2023-01-17T04:11:40.600Z,30.59
2023-01-17T04:12:40.589Z,29.95
2023-01-17T04:13:40.586Z,28.84
2023-01-17T04:14:40.566Z,27.35
2023-01-17T04:15:40.550Z,27.47
2023-01-17T04:16:40.685Z,27.99
2023-01-17T04:17:40.517Z,27.37
2023-01-17T04:18:40.525Z,28.26
2023-01-17T04:19:40.481Z,26.76
2023-01-17T04:20:40.464Z,29.57
2023-01-17T04:21:40.446Z,28.77
2023-01-17T04:22:40.452Z,30.09
2023-01-17T04:23:40.443Z,29.99
2023-01-17T04:24:40.376Z,27.56
2023-01-17T04:25:40.354Z,26.34
2023-01-17T04:26:40.334Z,26.18
2023-01-17T04:27:40.304Z,28.69
2023-01-17T04:28:40.279Z,32.61
2023-01-17T04:29:40.258Z,30.09
2023-01-17T04:30:40.242Z,26.43
2023-01-17T04:31:40.303Z,29.55
2023-01-17T04:32:40.196Z,30.99
2023-01-17T04:33:40.161Z,32.67
2023-01-17T04:34:40.144Z,31.68
2023-01-17T04:35:40.123Z,31.06
2023-01-17T04:36:40.110Z,29.56
2023-01-17T04:37:40.095Z,30.52
2023-01-17T04:38:40.099Z,29.57
2023-01-17T04:39:40.041Z,28.21
2023-01-17T04:40:40.023Z,28.99
2023-01-17T04:41:40.004Z,31.91
2023-01-17T04:42:39.987Z,29.19
2023-01-17T04:43:39.963Z,28.82
2023-01-17T04:44:39.956Z,27.95
2023-01-17T04:45:39.927Z,29.45
2023-01-17T04:46:39.889Z,28.52
2023-01-17T04:47:39.875Z,28.95
2023-01-17T04:48:39.841Z,32.18
2023-01-17T04:49:39.823Z,27.04
2023-01-17T04:50:39.803Z,29.19
2023-01-17T04:51:39.784Z,29.80
2023-01-17T04:52:39.764Z,32.38
2023-01-17T04:53:39.733Z,30.33
2023-01-17T04:54:39.749Z,26.81
2023-01-17T04:55:39.685Z,29.11
2023-01-17T04:56:39.679Z,27.98
2023-01-17T04:57:39.650Z,28.54
2023-01-17T04:58:39.630Z,26.17
2023-01-17T04:59:39.613Z,30.50
2023-01-17T05:00:39.594Z,29.15
2023-01-17T05:01:39.869Z,32.21
2023-01-17T05:02:39.592Z,26.29
2023-01-17T05:03:39.522Z,27.01
2023-01-17T05:04:39.504Z,29.35
2023-01-17T05:05:39.478Z,29.27
2023-01-17T05:06:39.459Z,28.54
2023-01-17T05:07:39.440Z,31.21
2023-01-17T05:08:39.422Z,30.39
2023-01-17T05:09:39.389Z,28.07
2023-01-17T05:10:39.456Z,31.07
2023-01-17T05:11:39.349Z,28.18
2023-01-17T05:12:39.325Z,30.63
2023-01-17T05:13:39.310Z,27.90
2023-01-17T05:14:40.136Z,28.95
2023-01-17T05:15:39.272Z,30.98
2023-01-17T05:16:39.215Z,29.55
2023-01-17T05:17:39.186Z,28.54
2023-01-17T05:18:39.169Z,28.73
2023-01-17T05:19:39.138Z,28.03
2023-01-17T05:20:39.121Z,29.68
2023-01-17T05:21:39.094Z,28.09
2023-01-17T05:22:39.075Z,30.30
2023-01-17T05:23:39.058Z,30.38
2023-01-17T05:24:39.018Z,26.74
2023-01-17T05:25:38.987Z,28.35
2023-01-17T05:26:38.989Z,30.56
2023-01-17T05:27:38.946Z,27.83
2023-01-17T05:28:38.917Z,28.33
2023-01-17T05:29:38.893Z,26.75
2023-01-17T05:30:38.878Z,28.03
2023-01-17T05:31:38.851Z,28.11
2023-01-17T05:32:38.833Z,28.73
2023-01-17T05:33:38.836Z,29.38
2023-01-17T05:34:38.796Z,28.78
2023-01-17T05:35:38.766Z,27.35
2023-01-17T05:36:38.749Z,26.64
2023-01-17T05:37:38.716Z,31.16
2023-01-17T05:38:38.695Z,31.44
2023-01-17T05:39:38.675Z,29.47
2023-01-17T05:40:38.670Z,30.56
2023-01-17T05:41:38.643Z,30.22
2023-01-17T05:42:38.640Z,32.51
2023-01-17T05:43:38.609Z,30.68
2023-01-17T05:44:38.574Z,29.31
2023-01-17T05:45:38.550Z,29.57
2023-01-17T05:46:38.586Z,28.94
2023-01-17T05:47:38.509Z,26.48
2023-01-17T05:48:38.499Z,29.24
2023-01-17T05:49:38.481Z,29.69
2023-01-17T05:50:38.468Z,27.81
2023-01-17T05:51:38.437Z,27.66
2023-01-17T05:52:38.416Z,30.03
2023-01-17T05:53:38.395Z,30.98
2023-01-17T05:54:38.384Z,28.95
2023-01-17T05:55:38.361Z,28.55
2023-01-17T05:56:38.344Z,30.69
2023-01-17T05:57:38.320Z,31.05
2023-01-17T05:58:38.328Z,30.93
2023-01-17T05:59:38.282Z,31.25
2023-01-17T06:00:38.253Z,31.23
2023-01-17T06:01:38.228Z,29.81
2023-01-17T06:02:38.234Z,28.71
2023-01-17T06:03:38.182Z,30.29
2023-01-17T06:04:38.202Z,29.05
2023-01-17T06:05:38.138Z,25.11
2023-01-17T06:06:38.134Z,28.97
2023-01-17T06:07:38.092Z,27.52
2023-01-17T06:08:38.161Z,30.25
2023-01-17T06:09:38.049Z,28.81
2023-01-17T06:10:38.039Z,32.38
2023-01-17T06:11:38.005Z,30.14
2023-01-17T06:12:37.983Z,34.82
2023-01-17T06:13:37.964Z,30.19
2023-01-17T06:14:37.968Z,30.62
2023-01-17T06:15:38.021Z,32.45
2023-01-17T06:16:37.891Z,32.15
2023-01-17T06:17:37.873Z,29.58
2023-01-17T06:18:37.857Z,28.05
2023-01-17T06:19:38.162Z,26.86
2023-01-17T06:20:37.806Z,28.33
2023-01-17T06:21:38.029Z,28.92
2023-01-17T06:22:37.761Z,31.29
2023-01-17T06:23:37.742Z,32.37
2023-01-17T06:24:38.172Z,34.12
2023-01-17T06:25:37.700Z,30.59
2023-01-17T06:26:37.676Z,29.42
2023-01-17T06:27:37.657Z,32.04
2023-01-17T06:28:37.628Z,28.60
2023-01-17T06:29:37.670Z,28.17
2023-01-17T06:30:37.619Z,29.46
2023-01-17T06:31:37.642Z,28.67
2023-01-17T06:32:37.546Z,28.62
2023-01-17T06:33:37.519Z,28.81
2023-01-17T06:34:37.679Z,29.56
2023-01-17T06:35:37.469Z,27.83
2023-01-17T06:36:37.457Z,32.19
2023-01-17T06:37:37.419Z,30.47
2023-01-17T06:38:37.669Z,31.44
2023-01-17T06:39:37.386Z,35.07
2023-01-17T06:40:37.386Z,32.39
2023-01-17T06:41:37.342Z,31.85
2023-01-17T06:42:37.294Z,33.94
2023-01-17T06:43:37.917Z,35.05
2023-01-17T06:44:37.257Z,35.77
2023-01-17T06:45:37.235Z,36.04
2023-01-17T06:46:37.275Z,36.86
2023-01-17T06:47:37.167Z,39.73
2023-01-17T06:48:37.302Z,39.31
2023-01-17T06:49:37.292Z,40.68
2023-01-17T06:50:37.174Z,40.54
2023-01-17T06:51:37.176Z,38.64
2023-01-17T06:52:37.197Z,41.90
2023-01-17T06:53:37.428Z,44.99
2023-01-17T06:54:37.284Z,49.94
2023-01-17T06:55:37.368Z,49.83
2023-01-17T06:56:37.447Z,51.33
2023-01-17T06:57:37.394Z,52.61
2023-01-17T06:58:37.026Z,55.49
2023-01-17T06:59:37.484Z,32.76
2023-01-17T07:00:39.547Z,31.72
2023-01-17T07:01:36.984Z,33.26
2023-01-17T07:02:36.907Z,39.26
2023-01-17T07:03:36.931Z,43.98
2023-01-17T07:04:37.810Z,47.77
2023-01-17T07:05:36.897Z,43.70
2023-01-17T07:06:40.121Z,37.60
2023-01-17T07:07:40.107Z,37.61
2023-01-17T07:08:37.907Z,37.81
2023-01-17T07:09:36.960Z,37.85
2023-01-17T07:10:37.178Z,37.65
2023-01-17T07:11:36.877Z,37.97
2023-01-17T07:12:36.862Z,35.77
2023-01-17T07:13:36.855Z,44.56
2023-01-17T07:14:36.832Z,50.09
2023-01-17T07:15:37.190Z,53.98
2023-01-17T07:16:36.799Z,57.96
2023-01-17T07:17:36.788Z,64.17
2023-01-17T07:18:36.813Z,69.39
2023-01-17T07:19:36.760Z,72.33
2023-01-17T07:20:36.733Z,77.09
2023-01-17T07:21:36.724Z,81.20
2023-01-17T07:22:36.711Z,84.48
2023-01-17T07:23:36.701Z,90.10
2023-01-17T07:24:36.659Z,91.53
2023-01-17T07:25:36.631Z,97.39
2023-01-17T07:26:36.614Z,101.73
2023-01-17T07:27:36.591Z,107.53
2023-01-17T07:28:36.596Z,109.34
2023-01-17T07:29:36.537Z,111.19
2023-01-17T07:30:36.507Z,117.10
2023-01-17T07:31:36.570Z,122.31
2023-01-17T07:32:36.458Z,126.49
2023-01-17T07:33:36.441Z,128.52
2023-01-17T07:34:36.713Z,132.69
2023-01-17T07:35:36.361Z,132.40
2023-01-17T07:36:36.329Z,135.83
2023-01-17T07:37:36.318Z,140.29
2023-01-17T07:38:36.308Z,145.58
2023-01-17T07:39:36.235Z,147.95
2023-01-17T07:40:42.024Z,149.85
2023-01-17T07:41:36.180Z,150.18
2023-01-17T07:42:36.138Z,150.59
2023-01-17T07:43:36.100Z,151.28
2023-01-17T07:44:36.099Z,149.89
2023-01-17T07:45:36.196Z,147.01
2023-01-17T07:46:36.053Z,150.03
2023-01-17T07:47:36.724Z,150.75
2023-01-17T07:48:36.193Z,150.43
2023-01-17T07:49:35.931Z,152.52
2023-01-17T07:50:35.893Z,151.47
2023-01-17T07:51:35.851Z,152.25
2023-01-17T07:52:35.812Z,153.32
2023-01-17T07:53:36.218Z,151.97
2023-01-17T07:54:35.766Z,151.99
2023-01-17T07:55:36.199Z,151.50
2023-01-17T07:56:35.699Z,151.74
2023-01-17T07:57:35.658Z,146.16
2023-01-17T07:58:35.625Z,128.86
2023-01-17T07:59:35.605Z,118.72
2023-01-17T08:00:35.698Z,115.54
2023-01-17T08:01:35.728Z,109.08
2023-01-17T08:02:35.538Z,101.07
2023-01-17T08:03:35.561Z,98.03
2023-01-17T08:04:35.538Z,90.93
2023-01-17T08:05:35.730Z,81.29
2023-01-17T08:06:35.503Z,75.88
2023-01-17T08:07:35.483Z,70.04
2023-01-17T08:08:35.465Z,62.50
2023-01-17T08:09:35.446Z,69.74
2023-01-17T08:10:35.685Z,79.01
2023-01-17T08:11:35.432Z,74.72
2023-01-17T08:12:35.441Z,53.04
2023-01-17T08:13:35.453Z,39.12
2023-01-17T08:14:35.441Z,25.39
2023-01-17T08:15:35.725Z,25.17
2023-01-17T08:16:35.550Z,25.63
2023-01-17T08:17:35.482Z,25.00
2023-01-17T08:18:35.494Z,25.00
2023-01-17T08:19:35.491Z,25.00
2023-01-17T08:20:35.499Z,25.97
2023-01-17T08:21:35.702Z,23.66
2023-01-17T08:22:35.531Z,25.78
2023-01-17T08:23:35.524Z,25.00
2023-01-17T08:24:35.541Z,25.00
2023-01-17T08:25:35.573Z,25.00
2023-01-17T08:26:35.714Z,25.00
2023-01-17T08:27:36.398Z,24.86
2023-01-17T08:28:35.611Z,26.59
2023-01-17T08:29:35.655Z,26.19
2023-01-17T08:30:35.707Z,25.82
2023-01-17T08:31:35.755Z,27.31
2023-01-17T08:32:35.655Z,30.04
2023-01-17T08:33:35.665Z,28.59
2023-01-17T08:34:35.673Z,30.26
2023-01-17T08:35:36.402Z,32.68
2023-01-17T08:36:35.664Z,35.89
2023-01-17T08:37:35.816Z,36.88
2023-01-17T08:38:35.743Z,37.96
2023-01-17T08:39:35.683Z,39.17
2023-01-17T08:40:35.711Z,44.77
2023-01-17T08:41:35.669Z,54.64
2023-01-17T08:42:35.754Z,53.47
2023-01-17T08:43:35.662Z,62.64
2023-01-17T08:45:35.629Z,67.71
2023-01-17T08:46:35.741Z,73.71
2023-01-17T08:47:35.588Z,80.62
2023-01-17T08:48:35.562Z,81.67
2023-01-17T08:49:35.535Z,89.55
2023-01-17T08:50:36.547Z,101.64
2023-01-17T08:52:35.791Z,101.49
2023-01-17T08:53:35.526Z,102.95
2023-01-17T08:54:35.619Z,106.97
2023-01-17T08:55:35.435Z,114.71
2023-01-17T08:56:35.899Z,125.84
2023-01-17T08:57:35.515Z,139.72
2023-01-17T08:58:35.605Z,139.22
2023-01-17T08:59:35.483Z,142.19
2023-01-17T09:00:35.496Z,148.44
2023-01-17T09:01:35.861Z,152.68
2023-01-17T09:02:35.308Z,160.48
2023-01-17T09:03:35.302Z,163.47
2023-01-17T09:04:35.363Z,165.72
2023-01-17T09:05:35.446Z,168.61
2023-01-17T09:06:35.178Z,174.16
2023-01-17T09:07:35.184Z,176.01
2023-01-17T09:08:35.141Z,182.03
2023-01-17T09:09:35.114Z,188.93
2023-01-17T09:10:35.318Z,187.95
2023-01-17T09:11:35.057Z,192.23
2023-01-17T09:12:35.040Z,193.81
2023-01-17T09:13:35.134Z,197.95
2023-01-17T09:14:35.005Z,201.32
2023-01-17T09:15:38.268Z,202.80
2023-01-17T09:16:35.019Z,203.27
2023-01-17T09:17:35.011Z,204.58
2023-01-17T09:18:34.845Z,207.38
2023-01-17T09:19:34.840Z,212.80
2023-01-17T09:20:36.839Z,219.47
2023-01-17T09:21:35.268Z,227.42
2023-01-17T09:22:34.840Z,231.52
2023-01-17T09:23:34.717Z,231.35
2023-01-17T09:24:34.847Z,230.72
2023-01-17T09:25:34.665Z,234.85
2023-01-17T09:26:34.794Z,236.48
2023-01-17T09:27:34.647Z,242.89
2023-01-17T09:28:34.568Z,239.29
2023-01-17T09:29:34.534Z,230.59
2023-01-17T09:30:34.549Z,221.01
2023-01-17T09:31:34.780Z,228.92
2023-01-17T09:32:35.454Z,238.85
2023-01-17T09:33:34.430Z,238.42
2023-01-17T09:34:34.409Z,233.11
2023-01-17T09:35:34.382Z,236.36
2023-01-17T09:36:34.864Z,239.50
2023-01-17T09:37:34.336Z,238.91
2023-01-17T09:38:34.328Z,238.98
2023-01-17T09:39:34.678Z,242.62
2023-01-17T09:40:34.274Z,243.36
2023-01-17T09:41:35.383Z,243.35
2023-01-17T09:42:34.306Z,246.88
2023-01-17T09:43:34.198Z,246.65
2023-01-17T09:44:34.691Z,247.42
2023-01-17T09:45:34.209Z,249.11
2023-01-17T09:46:34.114Z,247.36
2023-01-17T09:47:35.443Z,247.70
2023-01-17T09:48:34.068Z,249.55
2023-01-17T09:49:34.045Z,248.91
2023-01-17T09:50:35.323Z,247.04
2023-01-17T09:51:33.988Z,246.82
2023-01-17T09:52:34.248Z,247.98
2023-01-17T09:53:33.907Z,247.50
2023-01-17T09:54:33.873Z,249.12
2023-01-17T09:55:34.321Z,248.00
2023-01-17T09:56:34.363Z,249.72
2023-01-17T09:57:33.828Z,249.67
2023-01-17T09:58:33.848Z,247.65
2023-01-17T09:59:35.802Z,248.09
2023-01-17T10:00:34.405Z,237.60
2023-01-17T10:01:33.862Z,242.50
2023-01-17T10:02:32.847Z,240.75
2023-01-17T10:03:33.771Z,236.75
2023-01-17T10:04:33.622Z,239.86
2023-01-17T10:05:33.755Z,239.24
2023-01-17T10:06:33.573Z,243.52
2023-01-17T10:07:33.529Z,244.26
2023-01-17T10:08:33.497Z,243.31
2023-01-17T10:09:33.754Z,244.70
2023-01-17T10:10:33.450Z,243.41
2023-01-17T10:11:33.417Z,248.31
2023-01-17T10:12:33.390Z,243.35
2023-01-17T10:13:33.357Z,238.53
2023-01-17T10:14:33.418Z,243.15
2023-01-17T10:15:33.297Z,242.96
2023-01-17T10:16:33.300Z,233.27
2023-01-17T10:17:33.248Z,236.02
2023-01-17T10:18:33.259Z,232.49
2023-01-17T10:19:33.189Z,233.55
2023-01-17T10:20:33.156Z,231.16
2023-01-17T10:21:33.131Z,224.54
2023-01-17T10:22:33.106Z,222.07
2023-01-17T10:23:33.263Z,216.33
2023-01-17T10:24:33.061Z,219.63
2023-01-17T10:25:33.768Z,216.99
2023-01-17T10:26:33.009Z,206.78
2023-01-17T10:27:32.985Z,206.60
2023-01-17T10:28:32.964Z,189.66
2023-01-17T10:29:33.764Z,175.19
2023-01-17T10:30:33.383Z,180.27
2023-01-17T10:31:32.911Z,180.63
2023-01-17T10:32:32.891Z,176.79
2023-01-17T10:33:32.883Z,175.44
2023-01-17T10:34:32.925Z,171.24
2023-01-17T10:35:33.261Z,168.98
2023-01-17T10:36:32.816Z,168.07
2023-01-17T10:37:32.787Z,164.81
2023-01-17T10:38:32.781Z,167.69
2023-01-17T10:39:32.732Z,165.95
2023-01-17T10:40:32.720Z,166.49
2023-01-17T10:41:32.720Z,168.06
2023-01-17T10:42:32.665Z,167.69
2023-01-17T10:43:32.797Z,166.78
2023-01-17T10:44:32.608Z,168.03
2023-01-17T10:45:32.613Z,168.87
2023-01-17T10:46:32.671Z,167.14
2023-01-17T10:47:32.531Z,169.13
2023-01-17T10:48:32.544Z,173.33
2023-01-17T10:49:32.768Z,171.51
2023-01-17T10:50:32.460Z,170.79
2023-01-17T10:51:32.432Z,171.96
2023-01-17T10:52:32.403Z,170.37
2023-01-17T10:53:33.387Z,175.36
2023-01-17T10:54:32.771Z,172.33
2023-01-17T10:55:32.342Z,173.72
2023-01-17T10:56:32.306Z,173.02
2023-01-17T10:57:32.284Z,177.55
2023-01-17T10:58:32.259Z,181.56
2023-01-17T10:59:32.242Z,181.02
2023-01-17T11:00:32.206Z,187.79
2023-01-17T11:01:32.240Z,193.61
2023-01-17T11:02:32.414Z,194.16
2023-01-17T11:03:32.122Z,191.34
2023-01-17T11:04:32.101Z,189.05
2023-01-17T11:05:32.079Z,186.17
2023-01-17T11:06:32.067Z,165.92
2023-01-17T11:07:32.050Z,206.08
2023-01-17T11:08:32.025Z,184.63
2023-01-17T11:09:32.273Z,185.13
2023-01-17T11:10:32.002Z,182.12
2023-01-17T11:11:32.092Z,166.80
2023-01-17T11:12:31.959Z,157.81
2023-01-17T11:13:31.951Z,150.11
2023-01-17T11:14:32.282Z,139.33
2023-01-17T11:15:31.971Z,139.64
2023-01-17T11:16:31.965Z,135.71
2023-01-17T11:17:31.932Z,144.22
2023-01-17T11:18:32.820Z,134.88
2023-01-17T11:19:32.723Z,128.86
2023-01-17T11:20:31.905Z,126.18
2023-01-17T11:21:31.896Z,126.52
2023-01-17T11:22:31.894Z,124.37
2023-01-17T11:23:31.883Z,130.67
2023-01-17T11:24:32.289Z,125.47
2023-01-17T11:25:31.865Z,219.35
2023-01-17T11:26:31.842Z,203.80
2023-01-17T11:27:31.851Z,183.32
2023-01-17T11:28:31.828Z,176.61
2023-01-17T11:29:32.292Z,167.92
2023-01-17T11:30:31.830Z,162.86
2023-01-17T11:31:31.779Z,172.03
2023-01-17T11:32:31.775Z,170.43
2023-01-17T11:33:31.783Z,176.26
2023-01-17T11:34:31.816Z,182.51
2023-01-17T11:35:31.713Z,186.29
2023-01-17T11:36:31.693Z,190.48
2023-01-17T11:37:31.670Z,195.58
2023-01-17T11:38:31.647Z,200.83
2023-01-17T11:39:31.809Z,205.12
2023-01-17T11:40:31.601Z,207.80
2023-01-17T11:41:31.572Z,213.81
2023-01-17T11:42:31.544Z,216.54
2023-01-17T11:43:31.522Z,220.02
2023-01-17T11:44:31.515Z,222.99
2023-01-17T11:45:31.816Z,226.80
2023-01-17T11:46:31.847Z,230.08
2023-01-17T11:47:31.419Z,229.80
2023-01-17T11:48:31.387Z,233.92
2023-01-17T11:49:31.359Z,234.55
2023-01-17T11:50:31.360Z,236.05
2023-01-17T11:51:31.800Z,234.73
2023-01-17T11:52:31.279Z,240.25
2023-01-17T11:53:31.256Z,240.72
2023-01-17T11:54:31.263Z,240.81
2023-01-17T11:55:31.203Z,245.36
2023-01-17T11:56:31.299Z,245.10
2023-01-17T11:57:31.157Z,249.50
2023-01-17T11:58:31.117Z,249.95
2023-01-17T11:59:31.092Z,249.73
2023-01-17T12:00:31.063Z,247.66
2023-01-17T12:01:31.325Z,249.39
2023-01-17T12:02:30.997Z,250.00
2023-01-17T12:03:31.029Z,249.29
2023-01-17T12:04:30.945Z,248.11
2023-01-17T12:05:30.917Z,249.69
2023-01-17T12:06:30.910Z,247.94
2023-01-17T12:07:31.299Z,248.96
2023-01-17T12:08:30.824Z,248.21
2023-01-17T12:09:30.786Z,240.30
2023-01-17T12:10:30.796Z,228.77
2023-01-17T12:11:30.727Z,218.41
2023-01-17T12:12:30.797Z,217.68
2023-01-17T12:13:30.670Z,220.39
2023-01-17T12:14:30.636Z,213.38
2023-01-17T12:15:30.611Z,214.91
2023-01-17T12:16:30.594Z,211.32
2023-01-17T12:17:30.810Z,210.15
2023-01-17T12:18:30.506Z,216.26
2023-01-17T12:19:30.483Z,216.33
2023-01-17T12:20:30.452Z,212.86
2023-01-17T12:21:30.427Z,211.81
2023-01-17T12:22:30.831Z,210.20
2023-01-17T12:23:30.362Z,205.68
2023-01-17T12:24:30.330Z,206.71
2023-01-17T12:25:30.306Z,204.69
2023-01-17T12:26:30.275Z,204.37
2023-01-17T12:27:30.300Z,203.51
2023-01-17T12:28:30.221Z,203.08
2023-01-17T12:29:30.186Z,201.87
2023-01-17T12:30:30.163Z,199.93
2023-01-17T12:31:30.201Z,199.45
2023-01-17T12:32:30.330Z,201.69
2023-01-17T12:33:30.064Z,198.13
2023-01-17T12:34:30.051Z,197.32
2023-01-17T12:35:30.313Z,194.93
2023-01-17T12:36:29.989Z,198.94
2023-01-17T12:37:29.967Z,198.55
2023-01-17T12:38:32.816Z,198.13
2023-01-17T12:39:30.360Z,198.27
2023-01-17T12:40:29.882Z,197.41
2023-01-17T12:41:29.855Z,196.73
2023-01-17T12:42:29.835Z,196.34
2023-01-17T12:43:29.813Z,196.61
2023-01-17T12:44:29.793Z,197.23
2023-01-17T12:45:29.806Z,197.37
2023-01-17T12:46:29.753Z,195.94
2023-01-17T12:47:29.720Z,196.42
2023-01-17T12:48:29.694Z,196.76
2023-01-17T12:49:29.664Z,196.82
2023-01-17T12:50:29.807Z,196.11
2023-01-17T12:51:29.619Z,194.35
2023-01-17T12:52:29.587Z,194.25
2023-01-17T12:53:29.604Z,195.94
2023-01-17T12:54:29.570Z,195.76
2023-01-17T12:55:29.507Z,194.63
2023-01-17T12:56:29.475Z,196.02
2023-01-17T12:57:29.458Z,204.33
2023-01-17T12:58:29.811Z,205.49
2023-01-17T12:59:29.389Z,200.91
2023-01-17T13:00:29.404Z,199.19
2023-01-17T13:01:29.374Z,199.68
2023-01-17T13:02:29.343Z,197.16
2023-01-17T13:03:29.317Z,194.66
2023-01-17T13:04:29.317Z,191.79
2023-01-17T13:05:29.244Z,193.47
2023-01-17T13:06:29.221Z,192.33
2023-01-17T13:07:29.195Z,190.97
2023-01-17T13:08:29.317Z,191.19
2023-01-17T13:09:29.144Z,194.13
2023-01-17T13:10:31.046Z,190.47
2023-01-17T13:11:29.314Z,190.66
2023-01-17T13:12:29.065Z,191.15
2023-01-17T13:13:29.044Z,191.86
2023-01-17T13:14:29.018Z,189.54
2023-01-17T13:15:28.985Z,194.53
2023-01-17T13:16:29.382Z,190.82
2023-01-17T13:17:28.926Z,190.62
2023-01-17T13:18:28.911Z,189.48
2023-01-17T13:19:28.888Z,186.97
2023-01-17T13:20:28.870Z,187.37
2023-01-17T13:21:29.324Z,187.22
2023-01-17T13:22:28.804Z,185.26
2023-01-17T13:23:28.783Z,185.00
2023-01-17T13:24:28.825Z,184.54
2023-01-17T13:25:28.752Z,186.67
2023-01-17T13:26:28.890Z,186.70
2023-01-17T13:27:28.709Z,184.92
2023-01-17T13:28:28.660Z,182.11
2023-01-17T13:29:28.630Z,182.49
2023-01-17T13:30:28.605Z,184.34
2023-01-17T13:31:28.923Z,183.31
2023-01-17T13:32:28.556Z,183.96
2023-01-17T13:33:28.543Z,180.18
2023-01-17T13:34:28.516Z,179.17
2023-01-17T13:35:28.484Z,178.82
2023-01-17T13:36:28.822Z,180.38
2023-01-17T13:37:28.445Z,175.72
2023-01-17T13:38:28.424Z,178.91
2023-01-17T13:39:28.402Z,180.99
2023-01-17T13:40:29.636Z,177.36
2023-01-17T13:41:28.884Z,181.46
2023-01-17T13:42:28.347Z,177.31
2023-01-17T13:43:28.306Z,178.78
2023-01-17T13:44:28.326Z,180.04
2023-01-17T13:45:28.276Z,179.63
2023-01-17T13:46:28.328Z,175.75
2023-01-17T13:47:28.196Z,178.72
2023-01-17T13:48:28.167Z,181.49
2023-01-17T13:49:28.331Z,182.42
2023-01-17T13:50:28.116Z,177.52
2023-01-17T13:51:28.325Z,178.59
2023-01-17T13:52:28.086Z,177.62
2023-01-17T13:53:28.048Z,176.82
2023-01-17T13:54:28.331Z,176.42
2023-01-17T13:55:28.018Z,173.97
2023-01-17T13:56:27.984Z,175.02
2023-01-17T13:57:29.568Z,176.19
2023-01-17T13:58:27.956Z,176.00
2023-01-17T13:59:28.326Z,177.90
2023-01-17T14:00:27.903Z,175.09
2023-01-17T14:01:28.514Z,174.70
2023-01-17T14:02:27.849Z,172.90
2023-01-17T14:03:27.829Z,173.56
2023-01-17T14:04:27.793Z,171.99
2023-01-17T14:05:27.777Z,172.23
2023-01-17T14:06:27.774Z,171.45
2023-01-17T14:07:27.834Z,168.61
2023-01-17T14:08:27.686Z,169.29
2023-01-17T14:09:27.685Z,168.75
2023-01-17T14:10:27.637Z,168.73
2023-01-17T14:11:27.614Z,169.01
2023-01-17T14:12:27.840Z,170.25
2023-01-17T14:13:27.573Z,170.22
2023-01-17T14:14:27.863Z,167.81
2023-01-17T14:15:27.523Z,168.74
2023-01-17T14:16:27.584Z,168.63
2023-01-17T14:17:27.482Z,167.60
2023-01-17T14:18:27.464Z,166.90
2023-01-17T14:19:27.445Z,164.36
2023-01-17T14:20:27.479Z,166.43
2023-01-17T14:21:27.425Z,165.06
2023-01-17T14:22:27.842Z,162.76
2023-01-17T14:23:27.384Z,165.03
2023-01-17T14:24:27.365Z,165.23
2023-01-17T14:25:27.346Z,164.13
2023-01-17T14:26:27.335Z,162.25
2023-01-17T14:27:27.344Z,162.46
2023-01-17T14:28:27.290Z,162.16
2023-01-17T14:29:27.270Z,165.30